![]() |
EMODnet Physics ERDDAP
Easier access to scientific data |
log in|
Brought to you by EMODnet Physics |
| Dataset Title: | AAD - Collection of dew point temperature (DEWT) TimeSeries - IN SITU MultiPointTimeSeriesObservation
|
| Institution: | AAD (Dataset ID: TS_DEWT_AAD) |
| Information: | Summary
| License
| FGDC
| ISO 19115
| Metadata
| Background
| Subset
| Data Access Form
| Make a graph
|
| Name | Last modified | Size | Description | |
|---|---|---|---|---|
| Parent Directory | - | - | ||
| Davis_TS_DEWT_011994.nc | 28-Oct-2024 06:56 | 418391 | ||
| Davis_TS_DEWT_011998.nc | 28-Oct-2024 06:56 | 810172 | ||
| Davis_TS_DEWT_011999.nc | 28-Oct-2024 06:56 | 823330 | ||
| Davis_TS_DEWT_012002.nc | 28-Oct-2024 06:56 | 652095 | ||
| Davis_TS_DEWT_012003.nc | 28-Oct-2024 06:56 | 7026969 | ||
| Davis_TS_DEWT_012004.nc | 28-Oct-2024 06:56 | 6447818 | ||
| Davis_TS_DEWT_012005.nc | 28-Oct-2024 06:56 | 8017230 | ||
| Davis_TS_DEWT_012006.nc | 28-Oct-2024 06:56 | 8075639 | ||
| Davis_TS_DEWT_012007.nc | 28-Oct-2024 06:56 | 8135407 | ||
| Davis_TS_DEWT_012008.nc | 28-Oct-2024 06:56 | 8050440 | ||
| Davis_TS_DEWT_012009.nc | 28-Oct-2024 06:56 | 8069762 | ||
| Davis_TS_DEWT_012010.nc | 28-Oct-2024 06:56 | 8068043 | ||
| Davis_TS_DEWT_012011.nc | 28-Oct-2024 06:56 | 7356414 | ||
| Davis_TS_DEWT_012012.nc | 28-Oct-2024 06:56 | 8268395 | ||
| Davis_TS_DEWT_012013.nc | 28-Oct-2024 06:57 | 7502447 | ||
| Davis_TS_DEWT_012014.nc | 28-Oct-2024 06:57 | 7479788 | ||
| Davis_TS_DEWT_012015.nc | 28-Oct-2024 06:57 | 7363526 | ||
| Davis_TS_DEWT_012016.nc | 28-Oct-2024 06:57 | 7370951 | ||
| Davis_TS_DEWT_012017.nc | 28-Oct-2024 06:57 | 6125729 | ||
| Davis_TS_DEWT_012018.nc | 28-Oct-2024 06:57 | 8236197 | ||
| Davis_TS_DEWT_012019.nc | 28-Oct-2024 06:57 | 8304690 | ||
| Davis_TS_DEWT_012020.nc | 28-Oct-2024 06:57 | 8272405 | ||
| Davis_TS_DEWT_012022.nc | 28-Oct-2024 06:57 | 8268225 | ||
| Davis_TS_DEWT_012023.nc | 28-Oct-2024 06:57 | 8222674 | ||
| Davis_TS_DEWT_012024.nc | 28-Oct-2024 06:57 | 10229095 | ||
| Davis_TS_DEWT_012025.nc | 01-Feb-2025 17:36 | 9718141 | ||
| Davis_TS_DEWT_012026.nc | 01-Feb-2026 03:10 | 10218326 | ||
| Davis_TS_DEWT_021994.nc | 28-Oct-2024 06:57 | 418021 | ||
| Davis_TS_DEWT_021998.nc | 28-Oct-2024 06:57 | 812748 | ||
| Davis_TS_DEWT_021999.nc | 28-Oct-2024 06:58 | 828553 | ||
| Davis_TS_DEWT_022002.nc | 28-Oct-2024 06:58 | 505206 | ||
| Davis_TS_DEWT_022003.nc | 28-Oct-2024 06:58 | 7473729 | ||
| Davis_TS_DEWT_022004.nc | 28-Oct-2024 06:58 | 6128660 | ||
| Davis_TS_DEWT_022005.nc | 28-Oct-2024 06:58 | 7313280 | ||
| Davis_TS_DEWT_022006.nc | 28-Oct-2024 06:58 | 6569074 | ||
| Davis_TS_DEWT_022007.nc | 28-Oct-2024 06:58 | 5765960 | ||
| Davis_TS_DEWT_022008.nc | 28-Oct-2024 06:58 | 7476379 | ||
| Davis_TS_DEWT_022009.nc | 28-Oct-2024 06:58 | 7496048 | ||
| Davis_TS_DEWT_022010.nc | 28-Oct-2024 06:58 | 7464327 | ||
| Davis_TS_DEWT_022011.nc | 28-Oct-2024 06:58 | 7509222 | ||
| Davis_TS_DEWT_022012.nc | 28-Oct-2024 06:58 | 7822480 | ||
| Davis_TS_DEWT_022013.nc | 28-Oct-2024 06:58 | 4734059 | ||
| Davis_TS_DEWT_022014.nc | 28-Oct-2024 06:58 | 7295019 | ||
| Davis_TS_DEWT_022015.nc | 28-Oct-2024 06:59 | 6637301 | ||
| Davis_TS_DEWT_022016.nc | 28-Oct-2024 06:59 | 3728102 | ||
| Davis_TS_DEWT_022017.nc | 28-Oct-2024 06:59 | 7409864 | ||
| Davis_TS_DEWT_022018.nc | 28-Oct-2024 06:59 | 7432579 | ||
| Davis_TS_DEWT_022019.nc | 28-Oct-2024 06:59 | 7436329 | ||
| Davis_TS_DEWT_022020.nc | 28-Oct-2024 06:59 | 2120545 | ||
| Davis_TS_DEWT_022022.nc | 28-Oct-2024 06:59 | 7440290 | ||
| Davis_TS_DEWT_022023.nc | 28-Oct-2024 06:59 | 7427455 | ||
| Davis_TS_DEWT_022024.nc | 28-Oct-2024 06:59 | 8769072 | ||
| Davis_TS_DEWT_022025.nc | 01-Mar-2025 03:42 | 9061718 | ||
| Davis_TS_DEWT_022026.nc | 01-Mar-2026 03:12 | 9044563 | ||
| Davis_TS_DEWT_031994.nc | 28-Oct-2024 06:59 | 418427 | ||
| Davis_TS_DEWT_031997.nc | 28-Oct-2024 06:59 | 815030 | ||
| Davis_TS_DEWT_031998.nc | 28-Oct-2024 06:59 | 892618 | ||
| Davis_TS_DEWT_031999.nc | 28-Oct-2024 06:59 | 903338 | ||
| Davis_TS_DEWT_032002.nc | 28-Oct-2024 06:59 | 353438 | ||
| Davis_TS_DEWT_032003.nc | 28-Oct-2024 06:59 | 8248560 | ||
| Davis_TS_DEWT_032004.nc | 28-Oct-2024 06:59 | 7819864 | ||
| Davis_TS_DEWT_032005.nc | 28-Oct-2024 07:00 | 7320165 | ||
| Davis_TS_DEWT_032006.nc | 28-Oct-2024 07:00 | 7811170 | ||
| Davis_TS_DEWT_032007.nc | 28-Oct-2024 07:00 | 7860373 | ||
| Davis_TS_DEWT_032008.nc | 28-Oct-2024 07:00 | 7837389 | ||
| Davis_TS_DEWT_032009.nc | 28-Oct-2024 07:00 | 8298516 | ||
| Davis_TS_DEWT_032010.nc | 28-Oct-2024 07:00 | 8285681 | ||
| Davis_TS_DEWT_032011.nc | 28-Oct-2024 07:00 | 8398707 | ||
| Davis_TS_DEWT_032012.nc | 28-Oct-2024 07:00 | 5678673 | ||
| Davis_TS_DEWT_032013.nc | 28-Oct-2024 07:00 | 6818529 | ||
| Davis_TS_DEWT_032014.nc | 28-Oct-2024 07:00 | 7819871 | ||
| Davis_TS_DEWT_032015.nc | 28-Oct-2024 07:01 | 7404281 | ||
| Davis_TS_DEWT_032016.nc | 28-Oct-2024 07:01 | 8269000 | ||
| Davis_TS_DEWT_032017.nc | 28-Oct-2024 07:01 | 7978081 | ||
| Davis_TS_DEWT_032018.nc | 28-Oct-2024 07:01 | 5334022 | ||
| Davis_TS_DEWT_032019.nc | 28-Oct-2024 07:01 | 8240119 | ||
| Davis_TS_DEWT_032022.nc | 28-Oct-2024 07:01 | 8267032 | ||
| Davis_TS_DEWT_032023.nc | 28-Oct-2024 07:01 | 8226855 | ||
| Davis_TS_DEWT_032024.nc | 16-Sep-2024 16:51 | 10089006 | ||
| Davis_TS_DEWT_032025.nc | 04-Apr-2025 03:43 | 9974100 | ||
| Davis_TS_DEWT_032026.nc | 01-Apr-2026 02:18 | 10003082 | ||
| Davis_TS_DEWT_041993.nc | 28-Oct-2024 07:01 | 417961 | ||
| Davis_TS_DEWT_041997.nc | 28-Oct-2024 07:01 | 900458 | ||
| Davis_TS_DEWT_041998.nc | 28-Oct-2024 07:01 | 892714 | ||
| Davis_TS_DEWT_041999.nc | 28-Oct-2024 07:01 | 910649 | ||
| Davis_TS_DEWT_042002.nc | 28-Oct-2024 07:01 | 897840 | ||
| Davis_TS_DEWT_042003.nc | 28-Oct-2024 07:01 | 8007955 | ||
| Davis_TS_DEWT_042004.nc | 28-Oct-2024 07:02 | 7750063 | ||
| Davis_TS_DEWT_042005.nc | 28-Oct-2024 07:02 | 18568945 | ||
| Davis_TS_DEWT_042006.nc | 28-Oct-2024 07:02 | 7347788 | ||
| Davis_TS_DEWT_042007.nc | 28-Oct-2024 07:02 | 7996775 | ||
| Davis_TS_DEWT_042008.nc | 28-Oct-2024 07:02 | 7507285 | ||
| Davis_TS_DEWT_042009.nc | 28-Oct-2024 07:02 | 7825875 | ||
| Davis_TS_DEWT_042010.nc | 28-Oct-2024 07:02 | 7986562 | ||
| Davis_TS_DEWT_042011.nc | 28-Oct-2024 07:02 | 8043341 | ||
| Davis_TS_DEWT_042012.nc | 28-Oct-2024 07:02 | 2738084 | ||
| Davis_TS_DEWT_042013.nc | 28-Oct-2024 07:02 | 7970983 | ||
| Davis_TS_DEWT_042014.nc | 28-Oct-2024 07:02 | 6432883 | ||
| Davis_TS_DEWT_042015.nc | 28-Oct-2024 07:02 | 5114261 | ||
| Davis_TS_DEWT_042016.nc | 28-Oct-2024 07:03 | 7784315 | ||
| Davis_TS_DEWT_042017.nc | 28-Oct-2024 07:03 | 7962049 | ||
| Davis_TS_DEWT_042018.nc | 28-Oct-2024 07:03 | 7488035 | ||
| Davis_TS_DEWT_042019.nc | 28-Oct-2024 07:03 | 8010759 | ||
| Davis_TS_DEWT_042022.nc | 28-Oct-2024 07:03 | 7958125 | ||
| Davis_TS_DEWT_042023.nc | 28-Oct-2024 07:03 | 7420930 | ||
| Davis_TS_DEWT_042024.nc | 16-Sep-2024 16:51 | 9708544 | ||
| Davis_TS_DEWT_042025.nc | 01-May-2025 02:17 | 9668542 | ||
| Davis_TS_DEWT_042026.nc | 30-Apr-2026 02:19 | 9426695 | ||
| Davis_TS_DEWT_051993.nc | 28-Oct-2024 07:03 | 418951 | ||
| Davis_TS_DEWT_051997.nc | 28-Oct-2024 07:03 | 341918 | ||
| Davis_TS_DEWT_051998.nc | 28-Oct-2024 07:03 | 1039842 | ||
| Davis_TS_DEWT_051999.nc | 28-Oct-2024 07:03 | 347486 | ||
| Davis_TS_DEWT_052002.nc | 28-Oct-2024 07:03 | 900179 | ||
| Davis_TS_DEWT_052003.nc | 28-Oct-2024 07:03 | 8315617 | ||
| Davis_TS_DEWT_052004.nc | 28-Oct-2024 07:03 | 5330913 | ||
| Davis_TS_DEWT_052005.nc | 28-Oct-2024 07:03 | 7449358 | ||
| Davis_TS_DEWT_052006.nc | 28-Oct-2024 07:04 | 7835272 | ||
| Davis_TS_DEWT_052007.nc | 28-Oct-2024 07:04 | 7498220 | ||
| Davis_TS_DEWT_052008.nc | 28-Oct-2024 07:04 | 2760453 | ||
| Davis_TS_DEWT_052009.nc | 28-Oct-2024 07:04 | 8274941 | ||
| Davis_TS_DEWT_052010.nc | 28-Oct-2024 07:04 | 8329560 | ||
| Davis_TS_DEWT_052011.nc | 28-Oct-2024 07:04 | 8275741 | ||
| Davis_TS_DEWT_052012.nc | 28-Oct-2024 07:04 | 4176574 | ||
| Davis_TS_DEWT_052013.nc | 28-Oct-2024 07:04 | 7683522 | ||
| Davis_TS_DEWT_052014.nc | 28-Oct-2024 07:04 | 7294556 | ||
| Davis_TS_DEWT_052015.nc | 28-Oct-2024 07:04 | 5171801 | ||
| Davis_TS_DEWT_052016.nc | 28-Oct-2024 07:04 | 8267952 | ||
| Davis_TS_DEWT_052017.nc | 28-Oct-2024 07:04 | 8226181 | ||
| Davis_TS_DEWT_052018.nc | 28-Oct-2024 07:04 | 7758692 | ||
| Davis_TS_DEWT_052019.nc | 28-Oct-2024 07:05 | 8283863 | ||
| Davis_TS_DEWT_052022.nc | 28-Oct-2024 07:05 | 8294807 | ||
| Davis_TS_DEWT_052023.nc | 28-Oct-2024 07:05 | 8394340 | ||
| Davis_TS_DEWT_052024.nc | 16-Sep-2024 16:51 | 9689640 | ||
| Davis_TS_DEWT_052025.nc | 01-Jun-2025 02:24 | 10112931 | ||
| Davis_TS_DEWT_061993.nc | 28-Oct-2024 07:05 | 418679 | ||
| Davis_TS_DEWT_061997.nc | 28-Oct-2024 07:05 | 822687 | ||
| Davis_TS_DEWT_061998.nc | 28-Oct-2024 07:05 | 815911 | ||
| Davis_TS_DEWT_062002.nc | 28-Oct-2024 07:05 | 898225 | ||
| Davis_TS_DEWT_062003.nc | 28-Oct-2024 07:05 | 8054124 | ||
| Davis_TS_DEWT_062004.nc | 28-Oct-2024 07:05 | 7236135 | ||
| Davis_TS_DEWT_062005.nc | 28-Oct-2024 07:05 | 7479862 | ||
| Davis_TS_DEWT_062006.nc | 28-Oct-2024 07:05 | 7076555 | ||
| Davis_TS_DEWT_062007.nc | 28-Oct-2024 07:05 | 5860883 | ||
| Davis_TS_DEWT_062008.nc | 28-Oct-2024 07:05 | 7744707 | ||
| Davis_TS_DEWT_062009.nc | 28-Oct-2024 07:06 | 7981377 | ||
| Davis_TS_DEWT_062010.nc | 28-Oct-2024 07:06 | 5949904 | ||
| Davis_TS_DEWT_062011.nc | 28-Oct-2024 07:06 | 8027411 | ||
| Davis_TS_DEWT_062012.nc | 28-Oct-2024 07:06 | 6707953 | ||
| Davis_TS_DEWT_062013.nc | 28-Oct-2024 07:06 | 7702764 | ||
| Davis_TS_DEWT_062014.nc | 28-Oct-2024 07:06 | 7362289 | ||
| Davis_TS_DEWT_062015.nc | 28-Oct-2024 07:06 | 6957380 | ||
| Davis_TS_DEWT_062016.nc | 28-Oct-2024 07:06 | 7972413 | ||
| Davis_TS_DEWT_062017.nc | 28-Oct-2024 07:06 | 7971380 | ||
| Davis_TS_DEWT_062018.nc | 28-Oct-2024 07:06 | 8022688 | ||
| Davis_TS_DEWT_062019.nc | 28-Oct-2024 07:06 | 7944436 | ||
| Davis_TS_DEWT_062022.nc | 28-Oct-2024 07:07 | 7966815 | ||
| Davis_TS_DEWT_062023.nc | 28-Oct-2024 07:07 | 10591346 | ||
| Davis_TS_DEWT_062024.nc | 16-Sep-2024 16:51 | 9597985 | ||
| Davis_TS_DEWT_062025.nc | 01-Jul-2025 02:43 | 9941538 | ||
| Davis_TS_DEWT_071993.nc | 28-Oct-2024 07:07 | 418576 | ||
| Davis_TS_DEWT_071997.nc | 28-Oct-2024 07:07 | 1046050 | ||
| Davis_TS_DEWT_071998.nc | 28-Oct-2024 07:07 | 1038695 | ||
| Davis_TS_DEWT_072002.nc | 28-Oct-2024 07:07 | 897409 | ||
| Davis_TS_DEWT_072003.nc | 28-Oct-2024 07:07 | 8333899 | ||
| Davis_TS_DEWT_072004.nc | 28-Oct-2024 07:07 | 7981643 | ||
| Davis_TS_DEWT_072005.nc | 28-Oct-2024 07:07 | 7539800 | ||
| Davis_TS_DEWT_072006.nc | 28-Oct-2024 07:07 | 8095258 | ||
| Davis_TS_DEWT_072007.nc | 28-Oct-2024 07:07 | 7484260 | ||
| Davis_TS_DEWT_072008.nc | 28-Oct-2024 07:07 | 8043294 | ||
| Davis_TS_DEWT_072009.nc | 28-Oct-2024 07:07 | 8267784 | ||
| Davis_TS_DEWT_072010.nc | 28-Oct-2024 07:07 | 8013535 | ||
| Davis_TS_DEWT_072011.nc | 28-Oct-2024 07:07 | 7521775 | ||
| Davis_TS_DEWT_072012.nc | 28-Oct-2024 07:08 | 7981515 | ||
| Davis_TS_DEWT_072013.nc | 28-Oct-2024 07:08 | 7922584 | ||
| Davis_TS_DEWT_072014.nc | 28-Oct-2024 07:08 | 6741756 | ||
| Davis_TS_DEWT_072015.nc | 28-Oct-2024 07:08 | 7352406 | ||
| Davis_TS_DEWT_072016.nc | 28-Oct-2024 07:08 | 8269505 | ||
| Davis_TS_DEWT_072017.nc | 28-Oct-2024 07:08 | 8252211 | ||
| Davis_TS_DEWT_072018.nc | 28-Oct-2024 07:08 | 6682922 | ||
| Davis_TS_DEWT_072019.nc | 28-Oct-2024 07:08 | 8282868 | ||
| Davis_TS_DEWT_072022.nc | 28-Oct-2024 07:08 | 8304754 | ||
| Davis_TS_DEWT_072023.nc | 28-Oct-2024 07:08 | 11106005 | ||
| Davis_TS_DEWT_072024.nc | 16-Sep-2024 16:51 | 10134929 | ||
| Davis_TS_DEWT_072025.nc | 02-Aug-2025 02:24 | 10156213 | ||
| Davis_TS_DEWT_081993.nc | 28-Oct-2024 07:08 | 418674 | ||
| Davis_TS_DEWT_081997.nc | 28-Oct-2024 07:08 | 1044285 | ||
| Davis_TS_DEWT_081998.nc | 28-Oct-2024 07:08 | 1036922 | ||
| Davis_TS_DEWT_082002.nc | 28-Oct-2024 07:09 | 1582960 | ||
| Davis_TS_DEWT_082003.nc | 28-Oct-2024 07:09 | 7508484 | ||
| Davis_TS_DEWT_082004.nc | 28-Oct-2024 07:09 | 8043948 | ||
| Davis_TS_DEWT_082005.nc | 28-Oct-2024 07:09 | 7000314 | ||
| Davis_TS_DEWT_082006.nc | 28-Oct-2024 07:09 | 7922716 | ||
| Davis_TS_DEWT_082007.nc | 28-Oct-2024 07:09 | 8309703 | ||
| Davis_TS_DEWT_082008.nc | 28-Oct-2024 07:09 | 7685545 | ||
| Davis_TS_DEWT_082009.nc | 28-Oct-2024 07:09 | 8058822 | ||
| Davis_TS_DEWT_082010.nc | 28-Oct-2024 07:09 | 8108069 | ||
| Davis_TS_DEWT_082011.nc | 28-Oct-2024 07:09 | 7486521 | ||
| Davis_TS_DEWT_082012.nc | 28-Oct-2024 07:09 | 7304428 | ||
| Davis_TS_DEWT_082013.nc | 28-Oct-2024 07:09 | 8023116 | ||
| Davis_TS_DEWT_082014.nc | 28-Oct-2024 07:09 | 7700386 | ||
| Davis_TS_DEWT_082015.nc | 28-Oct-2024 07:10 | 7330712 | ||
| Davis_TS_DEWT_082016.nc | 28-Oct-2024 07:10 | 8256253 | ||
| Davis_TS_DEWT_082017.nc | 28-Oct-2024 07:10 | 8231508 | ||
| Davis_TS_DEWT_082018.nc | 28-Oct-2024 07:10 | 8302399 | ||
| Davis_TS_DEWT_082019.nc | 28-Oct-2024 07:10 | 8263975 | ||
| Davis_TS_DEWT_082021.nc | 28-Oct-2024 07:10 | 391755 | ||
| Davis_TS_DEWT_082022.nc | 28-Oct-2024 07:10 | 8237145 | ||
| Davis_TS_DEWT_082023.nc | 28-Oct-2024 07:10 | 10781437 | ||
| Davis_TS_DEWT_082024.nc | 16-Sep-2024 16:51 | 10014651 | ||
| Davis_TS_DEWT_082025.nc | 01-Sep-2025 02:27 | 10236677 | ||
| Davis_TS_DEWT_091993.nc | 28-Oct-2024 07:10 | 418551 | ||
| Davis_TS_DEWT_091997.nc | 28-Oct-2024 07:10 | 895515 | ||
| Davis_TS_DEWT_091998.nc | 28-Oct-2024 07:10 | 812407 | ||
| Davis_TS_DEWT_091999.nc | 28-Oct-2024 07:10 | 897155 | ||
| Davis_TS_DEWT_092001.nc | 28-Oct-2024 07:10 | 656689 | ||
| Davis_TS_DEWT_092002.nc | 28-Oct-2024 07:11 | 8028676 | ||
| Davis_TS_DEWT_092003.nc | 28-Oct-2024 07:11 | 7415584 | ||
| Davis_TS_DEWT_092004.nc | 28-Oct-2024 07:11 | 7874891 | ||
| Davis_TS_DEWT_092005.nc | 28-Oct-2024 07:11 | 7899195 | ||
| Davis_TS_DEWT_092006.nc | 28-Oct-2024 07:11 | 6511659 | ||
| Davis_TS_DEWT_092007.nc | 28-Oct-2024 07:11 | 8009970 | ||
| Davis_TS_DEWT_092008.nc | 28-Oct-2024 07:11 | 8030717 | ||
| Davis_TS_DEWT_092009.nc | 28-Oct-2024 07:11 | 8063855 | ||
| Davis_TS_DEWT_092010.nc | 28-Oct-2024 07:11 | 7791144 | ||
| Davis_TS_DEWT_092011.nc | 28-Oct-2024 07:11 | 6774257 | ||
| Davis_TS_DEWT_092012.nc | 28-Oct-2024 07:11 | 7481166 | ||
| Davis_TS_DEWT_092013.nc | 28-Oct-2024 07:12 | 7738750 | ||
| Davis_TS_DEWT_092014.nc | 28-Oct-2024 07:12 | 7002271 | ||
| Davis_TS_DEWT_092015.nc | 28-Oct-2024 07:12 | 7075763 | ||
| Davis_TS_DEWT_092016.nc | 28-Oct-2024 07:12 | 7963019 | ||
| Davis_TS_DEWT_092017.nc | 28-Oct-2024 07:12 | 7980359 | ||
| Davis_TS_DEWT_092018.nc | 28-Oct-2024 07:12 | 8022494 | ||
| Davis_TS_DEWT_092019.nc | 28-Oct-2024 07:12 | 7972184 | ||
| Davis_TS_DEWT_092021.nc | 28-Oct-2024 07:12 | 7985267 | ||
| Davis_TS_DEWT_092022.nc | 28-Oct-2024 07:12 | 7997441 | ||
| Davis_TS_DEWT_092023.nc | 28-Oct-2024 07:12 | 10396791 | ||
| Davis_TS_DEWT_092024.nc | 01-Oct-2024 02:06 | 9733823 | ||
| Davis_TS_DEWT_092025.nc | 01-Oct-2025 02:02 | 9425003 | ||
| Davis_TS_DEWT_101993.nc | 28-Oct-2024 07:12 | 418507 | ||
| Davis_TS_DEWT_101997.nc | 28-Oct-2024 07:12 | 1043107 | ||
| Davis_TS_DEWT_101998.nc | 28-Oct-2024 07:12 | 1040698 | ||
| Davis_TS_DEWT_101999.nc | 28-Oct-2024 07:12 | 664736 | ||
| Davis_TS_DEWT_102000.nc | 28-Oct-2024 07:12 | 341846 | ||
| Davis_TS_DEWT_102001.nc | 28-Oct-2024 07:13 | 900536 | ||
| Davis_TS_DEWT_102002.nc | 28-Oct-2024 07:13 | 8044805 | ||
| Davis_TS_DEWT_102003.nc | 28-Oct-2024 07:13 | 6377386 | ||
| Davis_TS_DEWT_102004.nc | 28-Oct-2024 07:13 | 8378976 | ||
| Davis_TS_DEWT_102005.nc | 28-Oct-2024 07:13 | 7596276 | ||
| Davis_TS_DEWT_102006.nc | 28-Oct-2024 07:13 | 7418795 | ||
| Davis_TS_DEWT_102007.nc | 28-Oct-2024 07:13 | 8078892 | ||
| Davis_TS_DEWT_102008.nc | 28-Oct-2024 07:13 | 8310035 | ||
| Davis_TS_DEWT_102009.nc | 28-Oct-2024 07:13 | 8336561 | ||
| Davis_TS_DEWT_102010.nc | 28-Oct-2024 07:13 | 7505614 | ||
| Davis_TS_DEWT_102011.nc | 28-Oct-2024 07:13 | 7456159 | ||
| Davis_TS_DEWT_102012.nc | 28-Oct-2024 07:13 | 7493796 | ||
| Davis_TS_DEWT_102013.nc | 28-Oct-2024 07:14 | 6858618 | ||
| Davis_TS_DEWT_102014.nc | 28-Oct-2024 07:14 | 5120925 | ||
| Davis_TS_DEWT_102015.nc | 28-Oct-2024 07:14 | 6759842 | ||
| Davis_TS_DEWT_102016.nc | 28-Oct-2024 07:14 | 8272586 | ||
| Davis_TS_DEWT_102017.nc | 28-Oct-2024 07:14 | 8237802 | ||
| Davis_TS_DEWT_102018.nc | 28-Oct-2024 07:14 | 7453659 | ||
| Davis_TS_DEWT_102019.nc | 28-Oct-2024 07:14 | 8282162 | ||
| Davis_TS_DEWT_102021.nc | 28-Oct-2024 07:14 | 8263777 | ||
| Davis_TS_DEWT_102022.nc | 28-Oct-2024 07:14 | 8247624 | ||
| Davis_TS_DEWT_102023.nc | 28-Oct-2024 07:14 | 9825356 | ||
| Davis_TS_DEWT_102024.nc | 01-Nov-2024 03:15 | 10073017 | ||
| Davis_TS_DEWT_102025.nc | 01-Nov-2025 03:04 | 9857105 | ||
| Davis_TS_DEWT_111993.nc | 28-Oct-2024 07:14 | 418410 | ||
| Davis_TS_DEWT_111997.nc | 28-Oct-2024 07:14 | 894102 | ||
| Davis_TS_DEWT_111998.nc | 28-Oct-2024 07:14 | 900511 | ||
| Davis_TS_DEWT_111999.nc | 28-Oct-2024 07:14 | 343437 | ||
| Davis_TS_DEWT_112000.nc | 28-Oct-2024 07:15 | 341744 | ||
| Davis_TS_DEWT_112001.nc | 28-Oct-2024 07:15 | 900301 | ||
| Davis_TS_DEWT_112002.nc | 28-Oct-2024 07:15 | 7485318 | ||
| Davis_TS_DEWT_112003.nc | 28-Oct-2024 07:15 | 7319799 | ||
| Davis_TS_DEWT_112004.nc | 28-Oct-2024 07:15 | 8109776 | ||
| Davis_TS_DEWT_112005.nc | 28-Oct-2024 07:15 | 7969027 | ||
| Davis_TS_DEWT_112006.nc | 28-Oct-2024 07:15 | 6553044 | ||
| Davis_TS_DEWT_112007.nc | 28-Oct-2024 07:15 | 7846748 | ||
| Davis_TS_DEWT_112008.nc | 28-Oct-2024 07:15 | 7982236 | ||
| Davis_TS_DEWT_112009.nc | 28-Oct-2024 07:15 | 8038082 | ||
| Davis_TS_DEWT_112010.nc | 28-Oct-2024 07:15 | 7531974 | ||
| Davis_TS_DEWT_112011.nc | 28-Oct-2024 07:15 | 8067507 | ||
| Davis_TS_DEWT_112012.nc | 28-Oct-2024 07:15 | 7819071 | ||
| Davis_TS_DEWT_112013.nc | 28-Oct-2024 07:16 | 7204413 | ||
| Davis_TS_DEWT_112014.nc | 28-Oct-2024 07:16 | 6044990 | ||
| Davis_TS_DEWT_112015.nc | 28-Oct-2024 07:16 | 6889435 | ||
| Davis_TS_DEWT_112016.nc | 28-Oct-2024 07:16 | 7777112 | ||
| Davis_TS_DEWT_112017.nc | 28-Oct-2024 07:16 | 7955073 | ||
| Davis_TS_DEWT_112018.nc | 28-Oct-2024 07:16 | 6678958 | ||
| Davis_TS_DEWT_112019.nc | 28-Oct-2024 07:16 | 8008740 | ||
| Davis_TS_DEWT_112021.nc | 28-Oct-2024 07:16 | 8000233 | ||
| Davis_TS_DEWT_112022.nc | 28-Oct-2024 07:16 | 7963589 | ||
| Davis_TS_DEWT_112023.nc | 28-Oct-2024 07:16 | 9801779 | ||
| Davis_TS_DEWT_112024.nc | 01-Dec-2024 03:40 | 10091169 | ||
| Davis_TS_DEWT_112025.nc | 01-Dec-2025 03:08 | 9593246 | ||
| Davis_TS_DEWT_121997.nc | 28-Oct-2024 07:16 | 341770 | ||
| Davis_TS_DEWT_121998.nc | 28-Oct-2024 07:16 | 909047 | ||
| Davis_TS_DEWT_122001.nc | 28-Oct-2024 07:16 | 585769 | ||
| Davis_TS_DEWT_122002.nc | 28-Oct-2024 07:17 | 7829334 | ||
| Davis_TS_DEWT_122003.nc | 28-Oct-2024 07:17 | 8228212 | ||
| Davis_TS_DEWT_122004.nc | 28-Oct-2024 07:17 | 8353470 | ||
| Davis_TS_DEWT_122005.nc | 28-Oct-2024 07:17 | 7840875 | ||
| Davis_TS_DEWT_122006.nc | 28-Oct-2024 07:17 | 7905877 | ||
| Davis_TS_DEWT_122007.nc | 28-Oct-2024 07:17 | 8318435 | ||
| Davis_TS_DEWT_122008.nc | 28-Oct-2024 07:17 | 8317480 | ||
| Davis_TS_DEWT_122009.nc | 28-Oct-2024 07:17 | 8060347 | ||
| Davis_TS_DEWT_122010.nc | 28-Oct-2024 07:17 | 7901305 | ||
| Davis_TS_DEWT_122011.nc | 28-Oct-2024 07:17 | 8295387 | ||
| Davis_TS_DEWT_122012.nc | 28-Oct-2024 07:17 | 7722684 | ||
| Davis_TS_DEWT_122013.nc | 28-Oct-2024 07:17 | 7250724 | ||
| Davis_TS_DEWT_122014.nc | 28-Oct-2024 07:18 | 7136513 | ||
| Davis_TS_DEWT_122015.nc | 28-Oct-2024 07:18 | 7365028 | ||
| Davis_TS_DEWT_122016.nc | 28-Oct-2024 07:18 | 4825445 | ||
| Davis_TS_DEWT_122017.nc | 28-Oct-2024 07:18 | 8235671 | ||
| Davis_TS_DEWT_122018.nc | 28-Oct-2024 07:18 | 7019323 | ||
| Davis_TS_DEWT_122019.nc | 28-Oct-2024 07:18 | 8282079 | ||
| Davis_TS_DEWT_122021.nc | 28-Oct-2024 07:18 | 6254490 | ||
| Davis_TS_DEWT_122022.nc | 28-Oct-2024 07:18 | 7418904 | ||
| Davis_TS_DEWT_122023.nc | 28-Oct-2024 07:18 | 10291153 | ||
| Davis_TS_DEWT_122024.nc | 01-Jan-2025 03:38 | 10515597 | ||
| Davis_TS_DEWT_122025.nc | 01-Jan-2026 03:09 | 9897366 | ||